sensor_id;sensor_type;location;lat;lon;timestamp;pressure;altitude;pressure_sealevel;temperature
45976;BMP280;31696;42.668;23.322;2023-04-24T00:01:22;94446.25;;;12.90
45976;BMP280;31696;42.668;23.322;2023-04-24T00:03:23;94444.59;;;12.85
45976;BMP280;31696;42.668;23.322;2023-04-24T00:05:23;94442.25;;;12.79
45976;BMP280;31696;42.668;23.322;2023-04-24T00:07:24;94443.94;;;12.57
45976;BMP280;31696;42.668;23.322;2023-04-24T00:09:24;94431.63;;;12.58
45976;BMP280;31696;42.668;23.322;2023-04-24T00:11:24;94442.81;;;12.41
45976;BMP280;31696;42.668;23.322;2023-04-24T00:13:25;94433.00;;;12.59
45976;BMP280;31696;42.668;23.322;2023-04-24T00:15:25;94430.50;;;12.25
45976;BMP280;31696;42.668;23.322;2023-04-24T00:17:26;94425.41;;;12.17
45976;BMP280;31696;42.668;23.322;2023-04-24T00:19:26;94425.06;;;12.30
45976;BMP280;31696;42.668;23.322;2023-04-24T00:21:26;94422.16;;;12.26
45976;BMP280;31696;42.668;23.322;2023-04-24T00:23:27;94419.88;;;12.03
45976;BMP280;31696;42.668;23.322;2023-04-24T00:25:27;94425.94;;;12.15
45976;BMP280;31696;42.668;23.322;2023-04-24T00:27:28;94430.00;;;11.82
45976;BMP280;31696;42.668;23.322;2023-04-24T00:29:28;94427.13;;;12.05
45976;BMP280;31696;42.668;23.322;2023-04-24T00:31:28;94426.25;;;12.19
45976;BMP280;31696;42.668;23.322;2023-04-24T00:33:29;94429.81;;;11.97
45976;BMP280;31696;42.668;23.322;2023-04-24T00:35:29;94422.03;;;11.80
45976;BMP280;31696;42.668;23.322;2023-04-24T00:37:30;94425.81;;;12.13
45976;BMP280;31696;42.668;23.322;2023-04-24T00:39:30;94430.41;;;12.05
45976;BMP280;31696;42.668;23.322;2023-04-24T00:41:31;94424.97;;;12.11
45976;BMP280;31696;42.668;23.322;2023-04-24T00:43:31;94427.03;;;12.12
45976;BMP280;31696;42.668;23.322;2023-04-24T00:45:32;94419.94;;;12.13
45976;BMP280;31696;42.668;23.322;2023-04-24T00:47:33;94429.59;;;12.03
45976;BMP280;31696;42.668;23.322;2023-04-24T00:49:33;94423.69;;;12.29
45976;BMP280;31696;42.668;23.322;2023-04-24T00:51:34;94415.69;;;12.17
45976;BMP280;31696;42.668;23.322;2023-04-24T00:53:34;94421.41;;;12.16
45976;BMP280;31696;42.668;23.322;2023-04-24T00:55:34;94424.03;;;12.43
45976;BMP280;31696;42.668;23.322;2023-04-24T00:57:37;94425.41;;;12.44
45976;BMP280;31696;42.668;23.322;2023-04-24T00:59:37;94428.00;;;12.44
45976;BMP280;31696;42.668;23.322;2023-04-24T01:01:39;94424.84;;;12.45
45976;BMP280;31696;42.668;23.322;2023-04-24T01:03:42;94422.16;;;12.53
45976;BMP280;31696;42.668;23.322;2023-04-24T01:05:42;94419.59;;;12.36
45976;BMP280;31696;42.668;23.322;2023-04-24T01:07:43;94423.75;;;12.39
45976;BMP280;31696;42.668;23.322;2023-04-24T01:09:45;94416.53;;;12.30
45976;BMP280;31696;42.668;23.322;2023-04-24T01:11:47;94414.63;;;12.21
45976;BMP280;31696;42.668;23.322;2023-04-24T01:13:48;94407.94;;;12.27
45976;BMP280;31696;42.668;23.322;2023-04-24T01:15:48;94406.13;;;12.30
45976;BMP280;31696;42.668;23.322;2023-04-24T01:17:48;94411.13;;;12.08
45976;BMP280;31696;42.668;23.322;2023-04-24T01:19:50;94397.72;;;12.12
45976;BMP280;31696;42.668;23.322;2023-04-24T01:21:53;94405.03;;;11.79
45976;BMP280;31696;42.668;23.322;2023-04-24T01:23:56;94394.88;;;12.17
45976;BMP280;31696;42.668;23.322;2023-04-24T01:25:56;94389.56;;;11.98
45976;BMP280;31696;42.668;23.322;2023-04-24T01:27:59;94385.63;;;12.07
45976;BMP280;31696;42.668;23.322;2023-04-24T01:30:00;94390.88;;;12.16
45976;BMP280;31696;42.668;23.322;2023-04-24T01:32:00;94391.22;;;12.30
45976;BMP280;31696;42.668;23.322;2023-04-24T01:34:01;94400.44;;;12.41
45976;BMP280;31696;42.668;23.322;2023-04-24T01:36:02;94379.63;;;12.41
45976;BMP280;31696;42.668;23.322;2023-04-24T01:38:03;94387.50;;;11.97
45976;BMP280;31696;42.668;23.322;2023-04-24T01:40:04;94386.13;;;11.96
45976;BMP280;31696;42.668;23.322;2023-04-24T01:42:05;94387.16;;;11.83
45976;BMP280;31696;42.668;23.322;2023-04-24T01:44:05;94390.16;;;12.06
45976;BMP280;31696;42.668;23.322;2023-04-24T01:46:06;94388.38;;;11.82
45976;BMP280;31696;42.668;23.322;2023-04-24T01:48:10;94390.69;;;11.61
45976;BMP280;31696;42.668;23.322;2023-04-24T01:50:11;94382.38;;;11.63
45976;BMP280;31696;42.668;23.322;2023-04-24T01:52:12;94376.31;;;11.43
45976;BMP280;31696;42.668;23.322;2023-04-24T01:54:13;94379.53;;;11.34
45976;BMP280;31696;42.668;23.322;2023-04-24T01:56:13;94378.91;;;11.43
45976;BMP280;31696;42.668;23.322;2023-04-24T01:58:14;94373.16;;;11.27
45976;BMP280;31696;42.668;23.322;2023-04-24T02:00:14;94382.25;;;11.01
45976;BMP280;31696;42.668;23.322;2023-04-24T02:02:15;94377.09;;;11.36
45976;BMP280;31696;42.668;23.322;2023-04-24T02:04:15;94375.09;;;11.27
45976;BMP280;31696;42.668;23.322;2023-04-24T02:06:16;94375.56;;;11.16
45976;BMP280;31696;42.668;23.322;2023-04-24T02:08:16;94384.56;;;11.15
45976;BMP280;31696;42.668;23.322;2023-04-24T02:10:17;94386.56;;;11.24
45976;BMP280;31696;42.668;23.322;2023-04-24T02:12:17;94378.53;;;11.29
45976;BMP280;31696;42.668;23.322;2023-04-24T02:14:18;94376.13;;;10.89
45976;BMP280;31696;42.668;23.322;2023-04-24T02:16:18;94376.25;;;11.16
45976;BMP280;31696;42.668;23.322;2023-04-24T02:18:18;94363.47;;;11.28
45976;BMP280;31696;42.668;23.322;2023-04-24T02:20:19;94387.34;;;11.17
45976;BMP280;31696;42.668;23.322;2023-04-24T02:22:20;94378.00;;;11.14
45976;BMP280;31696;42.668;23.322;2023-04-24T02:24:20;94372.78;;;11.14
45976;BMP280;31696;42.668;23.322;2023-04-24T02:26:21;94374.91;;;10.90
45976;BMP280;31696;42.668;23.322;2023-04-24T02:28:21;94383.72;;;10.95
45976;BMP280;31696;42.668;23.322;2023-04-24T02:30:21;94377.69;;;11.10
45976;BMP280;31696;42.668;23.322;2023-04-24T02:32:22;94368.69;;;11.11
45976;BMP280;31696;42.668;23.322;2023-04-24T02:34:22;94361.00;;;11.13
45976;BMP280;31696;42.668;23.322;2023-04-24T02:36:23;94360.25;;;11.20
45976;BMP280;31696;42.668;23.322;2023-04-24T02:38:23;94357.94;;;11.06
45976;BMP280;31696;42.668;23.322;2023-04-24T02:40:24;94348.50;;;11.19
45976;BMP280;31696;42.668;23.322;2023-04-24T02:42:24;94347.22;;;11.10
45976;BMP280;31696;42.668;23.322;2023-04-24T02:44:24;94350.47;;;11.28
45976;BMP280;31696;42.668;23.322;2023-04-24T02:46:25;94352.63;;;11.22
45976;BMP280;31696;42.668;23.322;2023-04-24T02:48:25;94350.75;;;10.97
45976;BMP280;31696;42.668;23.322;2023-04-24T02:50:26;94344.19;;;10.96
45976;BMP280;31696;42.668;23.322;2023-04-24T02:52:26;94346.56;;;11.02
45976;BMP280;31696;42.668;23.322;2023-04-24T02:54:27;94333.59;;;10.85
45976;BMP280;31696;42.668;23.322;2023-04-24T02:56:27;94335.38;;;11.17
45976;BMP280;31696;42.668;23.322;2023-04-24T02:58:28;94343.69;;;11.15
45976;BMP280;31696;42.668;23.322;2023-04-24T03:00:29;94347.03;;;11.08
45976;BMP280;31696;42.668;23.322;2023-04-24T03:02:30;94349.94;;;11.12
45976;BMP280;31696;42.668;23.322;2023-04-24T03:04:30;94354.00;;;11.05
45976;BMP280;31696;42.668;23.322;2023-04-24T03:06:31;94350.31;;;11.08
45976;BMP280;31696;42.668;23.322;2023-04-24T03:08:32;94358.59;;;11.15
45976;BMP280;31696;42.668;23.322;2023-04-24T03:10:33;94358.91;;;11.19
45976;BMP280;31696;42.668;23.322;2023-04-24T03:12:33;94362.84;;;10.85
45976;BMP280;31696;42.668;23.322;2023-04-24T03:14:34;94364.53;;;10.90
45976;BMP280;31696;42.668;23.322;2023-04-24T03:16:34;94359.91;;;10.57
45976;BMP280;31696;42.668;23.322;2023-04-24T03:18:35;94361.28;;;10.82
45976;BMP280;31696;42.668;23.322;2023-04-24T03:20:37;94364.44;;;10.81
45976;BMP280;31696;42.668;23.322;2023-04-24T03:22:37;94361.94;;;10.90
45976;BMP280;31696;42.668;23.322;2023-04-24T03:24:40;94359.16;;;10.88
45976;BMP280;31696;42.668;23.322;2023-04-24T03:26:41;94362.84;;;11.02
45976;BMP280;31696;42.668;23.322;2023-04-24T03:28:53;94365.16;;;10.74
45976;BMP280;31696;42.668;23.322;2023-04-24T03:30:53;94357.50;;;10.59
45976;BMP280;31696;42.668;23.322;2023-04-24T03:32:55;94359.09;;;10.54
45976;BMP280;31696;42.668;23.322;2023-04-24T03:35:00;94360.50;;;10.23
45976;BMP280;31696;42.668;23.322;2023-04-24T03:37:00;94366.19;;;10.29
45976;BMP280;31696;42.668;23.322;2023-04-24T03:39:01;94367.25;;;10.75
45976;BMP280;31696;42.668;23.322;2023-04-24T03:41:07;94354.09;;;10.73
45976;BMP280;31696;42.668;23.322;2023-04-24T03:43:15;94355.47;;;10.74
45976;BMP280;31696;42.668;23.322;2023-04-24T03:45:15;94359.75;;;10.96
45976;BMP280;31696;42.668;23.322;2023-04-24T03:47:20;94358.06;;;10.74
45976;BMP280;31696;42.668;23.322;2023-04-24T03:49:21;94361.00;;;10.78
45976;BMP280;31696;42.668;23.322;2023-04-24T03:51:22;94351.34;;;10.71
45976;BMP280;31696;42.668;23.322;2023-04-24T03:53:25;94355.84;;;10.71
45976;BMP280;31696;42.668;23.322;2023-04-24T03:55:27;94359.00;;;10.86
45976;BMP280;31696;42.668;23.322;2023-04-24T03:57:27;94361.78;;;11.05
45976;BMP280;31696;42.668;23.322;2023-04-24T03:59:45;94369.25;;;11.01
45976;BMP280;31696;42.668;23.322;2023-04-24T04:01:51;94356.22;;;11.09
45976;BMP280;31696;42.668;23.322;2023-04-24T04:03:51;94362.81;;;11.10
45976;BMP280;31696;42.668;23.322;2023-04-24T04:05:55;94359.81;;;11.31
45976;BMP280;31696;42.668;23.322;2023-04-24T04:07:55;94362.09;;;11.10
45976;BMP280;31696;42.668;23.322;2023-04-24T04:09:56;94362.81;;;11.10
45976;BMP280;31696;42.668;23.322;2023-04-24T04:11:57;94363.03;;;11.22
45976;BMP280;31696;42.668;23.322;2023-04-24T04:13:58;94372.94;;;10.98
45976;BMP280;31696;42.668;23.322;2023-04-24T04:15:58;94357.38;;;11.16
45976;BMP280;31696;42.668;23.322;2023-04-24T04:17:59;94358.34;;;11.20
45976;BMP280;31696;42.668;23.322;2023-04-24T04:19:59;94354.38;;;11.19
45976;BMP280;31696;42.668;23.322;2023-04-24T04:22:00;94350.94;;;11.51
45976;BMP280;31696;42.668;23.322;2023-04-24T04:24:12;94364.69;;;11.61
45976;BMP280;31696;42.668;23.322;2023-04-24T04:26:17;94369.59;;;11.57
45976;BMP280;31696;42.668;23.322;2023-04-24T04:28:40;94372.84;;;11.75
45976;BMP280;31696;42.668;23.322;2023-04-24T04:30:40;94372.41;;;11.69
45976;BMP280;31696;42.668;23.322;2023-04-24T04:32:41;94359.50;;;11.44
45976;BMP280;31696;42.668;23.322;2023-04-24T04:34:42;94369.59;;;11.57
45976;BMP280;31696;42.668;23.322;2023-04-24T04:36:45;94366.34;;;11.66
45976;BMP280;31696;42.668;23.322;2023-04-24T04:39:12;94375.09;;;11.61
45976;BMP280;31696;42.668;23.322;2023-04-24T04:41:35;94365.47;;;11.54
45976;BMP280;31696;42.668;23.322;2023-04-24T04:43:36;94377.59;;;11.69
45976;BMP280;31696;42.668;23.322;2023-04-24T04:45:38;94385.16;;;11.91
45976;BMP280;31696;42.668;23.322;2023-04-24T04:48:15;94381.44;;;11.68
45976;BMP280;31696;42.668;23.322;2023-04-24T04:50:18;94387.09;;;11.56
45976;BMP280;31696;42.668;23.322;2023-04-24T04:52:20;94389.66;;;11.74
45976;BMP280;31696;42.668;23.322;2023-04-24T04:54:27;94391.44;;;11.88
45976;BMP280;31696;42.668;23.322;2023-04-24T04:56:28;94397.88;;;11.70
45976;BMP280;31696;42.668;23.322;2023-04-24T04:58:29;94394.19;;;11.73
45976;BMP280;31696;42.668;23.322;2023-04-24T05:00:33;94392.09;;;11.89
45976;BMP280;31696;42.668;23.322;2023-04-24T05:02:38;94392.50;;;11.85
45976;BMP280;31696;42.668;23.322;2023-04-24T05:04:39;94396.69;;;11.81
45976;BMP280;31696;42.668;23.322;2023-04-24T05:06:40;94397.22;;;11.79
45976;BMP280;31696;42.668;23.322;2023-04-24T05:08:40;94395.25;;;11.87
45976;BMP280;31696;42.668;23.322;2023-04-24T05:10:45;94394.63;;;11.79
45976;BMP280;31696;42.668;23.322;2023-04-24T05:12:45;94391.50;;;11.81
45976;BMP280;31696;42.668;23.322;2023-04-24T05:14:45;94390.97;;;11.82
45976;BMP280;31696;42.668;23.322;2023-04-24T05:16:46;94394.63;;;11.79
45976;BMP280;31696;42.668;23.322;2023-04-24T05:18:49;94396.19;;;11.82
45976;BMP280;31696;42.668;23.322;2023-04-24T05:20:54;94392.66;;;12.14
45976;BMP280;31696;42.668;23.322;2023-04-24T05:22:55;94396.00;;;11.97
45976;BMP280;31696;42.668;23.322;2023-04-24T05:24:56;94400.75;;;11.91
45976;BMP280;31696;42.668;23.322;2023-04-24T05:27:10;94394.75;;;11.37
45976;BMP280;31696;42.668;23.322;2023-04-24T05:29:14;94386.53;;;11.75
45976;BMP280;31696;42.668;23.322;2023-04-24T05:31:16;94396.31;;;11.84
45976;BMP280;31696;42.668;23.322;2023-04-24T05:33:18;94391.44;;;11.88
45976;BMP280;31696;42.668;23.322;2023-04-24T05:35:18;94388.28;;;11.90
45976;BMP280;31696;42.668;23.322;2023-04-24T05:37:19;94396.00;;;11.80
45976;BMP280;31696;42.668;23.322;2023-04-24T05:39:20;94391.13;;;11.84
45976;BMP280;31696;42.668;23.322;2023-04-24T05:41:21;94395.72;;;12.30
45976;BMP280;31696;42.668;23.322;2023-04-24T05:43:22;94392.50;;;12.39
45976;BMP280;31696;42.668;23.322;2023-04-24T05:45:23;94403.72;;;12.77
45976;BMP280;31696;42.668;23.322;2023-04-24T05:47:24;94395.25;;;12.50
45976;BMP280;31696;42.668;23.322;2023-04-24T05:49:25;94399.72;;;12.67
45976;BMP280;31696;42.668;23.322;2023-04-24T05:51:26;94396.63;;;12.51
45976;BMP280;31696;42.668;23.322;2023-04-24T05:53:26;94394.50;;;12.67
45976;BMP280;31696;42.668;23.322;2023-04-24T05:55:27;94395.56;;;13.19
45976;BMP280;31696;42.668;23.322;2023-04-24T05:57:28;94397.47;;;13.57
45976;BMP280;31696;42.668;23.322;2023-04-24T06:01:34;94389.94;;;13.52
45976;BMP280;31696;42.668;23.322;2023-04-24T06:03:48;94389.38;;;13.44
45976;BMP280;31696;42.668;23.322;2023-04-24T06:05:49;94396.66;;;13.45
45976;BMP280;31696;42.668;23.322;2023-04-24T06:07:50;94398.31;;;13.50
45976;BMP280;31696;42.668;23.322;2023-04-24T06:09:51;94396.91;;;13.68
45976;BMP280;31696;42.668;23.322;2023-04-24T06:11:51;94401.84;;;14.24
45976;BMP280;31696;42.668;23.322;2023-04-24T06:14:00;94398.88;;;14.70
45976;BMP280;31696;42.668;23.322;2023-04-24T06:16:13;94397.03;;;14.82
45976;BMP280;31696;42.668;23.322;2023-04-24T06:18:17;94396.56;;;15.60
45976;BMP280;31696;42.668;23.322;2023-04-24T06:20:17;94387.19;;;15.90
45976;BMP280;31696;42.668;23.322;2023-04-24T06:22:18;94389.59;;;16.21
45976;BMP280;31696;42.668;23.322;2023-04-24T06:24:18;94401.00;;;16.37
45976;BMP280;31696;42.668;23.322;2023-04-24T06:26:19;94399.75;;;16.86
45976;BMP280;31696;42.668;23.322;2023-04-24T06:28:20;94393.41;;;16.78
45976;BMP280;31696;42.668;23.322;2023-04-24T06:30:20;94397.91;;;16.06
45976;BMP280;31696;42.668;23.322;2023-04-24T06:32:23;94394.06;;;15.62
45976;BMP280;31696;42.668;23.322;2023-04-24T06:34:24;94392.53;;;15.81
45976;BMP280;31696;42.668;23.322;2023-04-24T06:36:25;94382.56;;;16.12
45976;BMP280;31696;42.668;23.322;2023-04-24T06:38:25;94389.81;;;16.25
45976;BMP280;31696;42.668;23.322;2023-04-24T06:40:25;94400.84;;;17.07
45976;BMP280;31696;42.668;23.322;2023-04-24T06:42:26;94399.25;;;17.77
45976;BMP280;31696;42.668;23.322;2023-04-24T06:44:26;94401.66;;;17.59
45976;BMP280;31696;42.668;23.322;2023-04-24T06:46:26;94392.38;;;16.71
45976;BMP280;31696;42.668;23.322;2023-04-24T06:48:27;94400.31;;;16.37
45976;BMP280;31696;42.668;23.322;2023-04-24T06:50:28;94398.94;;;16.35
45976;BMP280;31696;42.668;23.322;2023-04-24T06:52:28;94413.72;;;16.08
45976;BMP280;31696;42.668;23.322;2023-04-24T06:54:30;94408.25;;;16.04
45976;BMP280;31696;42.668;23.322;2023-04-24T06:56:30;94402.00;;;17.93
45976;BMP280;31696;42.668;23.322;2023-04-24T06:58:31;94397.31;;;17.52
45976;BMP280;31696;42.668;23.322;2023-04-24T07:00:31;94391.44;;;16.07
45976;BMP280;31696;42.668;23.322;2023-04-24T07:02:31;94381.84;;;16.23
45976;BMP280;31696;42.668;23.322;2023-04-24T07:04:32;94393.25;;;16.87
45976;BMP280;31696;42.668;23.322;2023-04-24T07:06:32;94388.41;;;16.59
45976;BMP280;31696;42.668;23.322;2023-04-24T07:08:33;94392.41;;;16.60
45976;BMP280;31696;42.668;23.322;2023-04-24T07:10:33;94394.88;;;17.43
45976;BMP280;31696;42.668;23.322;2023-04-24T07:12:35;94385.47;;;17.26
45976;BMP280;31696;42.668;23.322;2023-04-24T07:14:39;94398.31;;;18.39
45976;BMP280;31696;42.668;23.322;2023-04-24T07:16:40;94399.28;;;20.42
45976;BMP280;31696;42.668;23.322;2023-04-24T07:18:40;94399.16;;;21.83
45976;BMP280;31696;42.668;23.322;2023-04-24T07:20:40;94405.22;;;22.48
45976;BMP280;31696;42.668;23.322;2023-04-24T07:22:41;94405.22;;;22.48
45976;BMP280;31696;42.668;23.322;2023-04-24T07:24:44;94402.03;;;21.32
45976;BMP280;31696;42.668;23.322;2023-04-24T07:26:45;94395.53;;;22.57
45976;BMP280;31696;42.668;23.322;2023-04-24T07:28:46;94399.28;;;22.72
45976;BMP280;31696;42.668;23.322;2023-04-24T07:30:47;94406.41;;;24.11
45976;BMP280;31696;42.668;23.322;2023-04-24T07:32:47;94395.44;;;23.97
45976;BMP280;31696;42.668;23.322;2023-04-24T07:34:47;94390.34;;;24.35
45976;BMP280;31696;42.668;23.322;2023-04-24T07:36:48;94401.91;;;25.07
45976;BMP280;31696;42.668;23.322;2023-04-24T07:38:48;94411.84;;;24.74
45976;BMP280;31696;42.668;23.322;2023-04-24T07:40:48;94399.50;;;24.28
45976;BMP280;31696;42.668;23.322;2023-04-24T07:42:49;94390.88;;;23.48
45976;BMP280;31696;42.668;23.322;2023-04-24T07:44:49;94373.91;;;21.80
45976;BMP280;31696;42.668;23.322;2023-04-24T07:46:51;94366.59;;;21.39
45976;BMP280;31696;42.668;23.322;2023-04-24T07:48:51;94365.84;;;20.99
45976;BMP280;31696;42.668;23.322;2023-04-24T07:50:52;94366.53;;;20.82
45976;BMP280;31696;42.668;23.322;2023-04-24T07:52:52;94360.81;;;21.62
45976;BMP280;31696;42.668;23.322;2023-04-24T07:54:54;94363.56;;;21.47
45976;BMP280;31696;42.668;23.322;2023-04-24T07:56:58;94357.63;;;21.29
45976;BMP280;31696;42.668;23.322;2023-04-24T07:58:58;94354.63;;;21.75
45976;BMP280;31696;42.668;23.322;2023-04-24T08:00:59;94349.47;;;22.42
45976;BMP280;31696;42.668;23.322;2023-04-24T08:02:59;94350.81;;;21.41
45976;BMP280;31696;42.668;23.322;2023-04-24T08:04:59;94360.25;;;21.66
45976;BMP280;31696;42.668;23.322;2023-04-24T08:07:00;94359.09;;;21.71
45976;BMP280;31696;42.668;23.322;2023-04-24T08:09:00;94351.59;;;22.24
45976;BMP280;31696;42.668;23.322;2023-04-24T08:11:01;94345.25;;;22.33
45976;BMP280;31696;42.668;23.322;2023-04-24T08:13:01;94349.47;;;21.99
45976;BMP280;31696;42.668;23.322;2023-04-24T08:15:02;94338.41;;;21.85
45976;BMP280;31696;42.668;23.322;2023-04-24T08:17:03;94345.66;;;22.04
45976;BMP280;31696;42.668;23.322;2023-04-24T08:19:03;94344.91;;;22.67
45976;BMP280;31696;42.668;23.322;2023-04-24T08:21:04;94341.53;;;21.99
45976;BMP280;31696;42.668;23.322;2023-04-24T08:23:04;94341.66;;;22.03
45976;BMP280;31696;42.668;23.322;2023-04-24T08:25:05;94340.13;;;21.76
45976;BMP280;31696;42.668;23.322;2023-04-24T08:27:06;94331.19;;;22.07
45976;BMP280;31696;42.668;23.322;2023-04-24T08:29:06;94344.22;;;21.60
45976;BMP280;31696;42.668;23.322;2023-04-24T08:31:06;94330.16;;;21.75
45976;BMP280;31696;42.668;23.322;2023-04-24T08:33:07;94331.84;;;21.08
45976;BMP280;31696;42.668;23.322;2023-04-24T08:35:08;94352.13;;;21.60
45976;BMP280;31696;42.668;23.322;2023-04-24T08:37:09;94335.72;;;20.52
45976;BMP280;31696;42.668;23.322;2023-04-24T08:39:09;94337.13;;;20.72
45976;BMP280;31696;42.668;23.322;2023-04-24T08:41:09;94327.00;;;21.78
45976;BMP280;31696;42.668;23.322;2023-04-24T08:43:10;94318.84;;;21.72
45976;BMP280;31696;42.668;23.322;2023-04-24T08:45:12;94317.03;;;21.18
45976;BMP280;31696;42.668;23.322;2023-04-24T08:47:12;94312.66;;;22.48
45976;BMP280;31696;42.668;23.322;2023-04-24T08:49:13;94308.00;;;21.64
45976;BMP280;31696;42.668;23.322;2023-04-24T08:51:13;94310.63;;;22.25
45976;BMP280;31696;42.668;23.322;2023-04-24T08:53:14;94304.16;;;22.30
45976;BMP280;31696;42.668;23.322;2023-04-24T08:55:14;94306.16;;;21.47
45976;BMP280;31696;42.668;23.322;2023-04-24T08:57:17;94303.44;;;20.53
45976;BMP280;31696;42.668;23.322;2023-04-24T08:59:17;94299.38;;;21.62
45976;BMP280;31696;42.668;23.322;2023-04-24T09:01:18;94301.41;;;21.44
45976;BMP280;31696;42.668;23.322;2023-04-24T09:03:19;94287.03;;;21.49
45976;BMP280;31696;42.668;23.322;2023-04-24T09:05:21;94293.13;;;20.59
45976;BMP280;31696;42.668;23.322;2023-04-24T09:07:22;94295.31;;;21.59
45976;BMP280;31696;42.668;23.322;2023-04-24T09:09:23;94292.31;;;21.49
45976;BMP280;31696;42.668;23.322;2023-04-24T09:11:24;94286.25;;;20.34
45976;BMP280;31696;42.668;23.322;2023-04-24T09:13:24;94293.13;;;21.34
45976;BMP280;31696;42.668;23.322;2023-04-24T09:15:25;94275.50;;;21.21
45976;BMP280;31696;42.668;23.322;2023-04-24T09:17:26;94279.06;;;21.08
45976;BMP280;31696;42.668;23.322;2023-04-24T09:19:28;94272.81;;;21.19
45976;BMP280;31696;42.668;23.322;2023-04-24T09:21:32;94266.56;;;20.90
45976;BMP280;31696;42.668;23.322;2023-04-24T09:23:33;94271.41;;;20.78
45976;BMP280;31696;42.668;23.322;2023-04-24T09:25:34;94263.84;;;20.88
45976;BMP280;31696;42.668;23.322;2023-04-24T09:27:35;94261.19;;;20.51
45976;BMP280;31696;42.668;23.322;2023-04-24T09:29:36;94256.56;;;20.87
45976;BMP280;31696;42.668;23.322;2023-04-24T09:31:36;94261.16;;;20.86
45976;BMP280;31696;42.668;23.322;2023-04-24T09:33:37;94269.41;;;20.96
45976;BMP280;31696;42.668;23.322;2023-04-24T09:35:40;94248.53;;;20.30
45976;BMP280;31696;42.668;23.322;2023-04-24T09:37:41;94259.22;;;20.69
45976;BMP280;31696;42.668;23.322;2023-04-24T09:39:42;94250.03;;;20.90
45976;BMP280;31696;42.668;23.322;2023-04-24T09:43:49;94252.28;;;20.60
45976;BMP280;31696;42.668;23.322;2023-04-24T09:45:50;94259.50;;;20.77
45976;BMP280;31696;42.668;23.322;2023-04-24T09:47:55;94253.19;;;20.67
45976;BMP280;31696;42.668;23.322;2023-04-24T09:49:57;94254.81;;;21.13
45976;BMP280;31696;42.668;23.322;2023-04-24T09:52:08;94259.06;;;21.02
45976;BMP280;31696;42.668;23.322;2023-04-24T09:54:15;94247.28;;;21.05
45976;BMP280;31696;42.668;23.322;2023-04-24T09:56:16;94234.09;;;21.05
45976;BMP280;31696;42.668;23.322;2023-04-24T09:58:17;94239.25;;;21.01
45976;BMP280;31696;42.668;23.322;2023-04-24T10:00:18;94230.63;;;21.21
45976;BMP280;31696;42.668;23.322;2023-04-24T10:02:19;94236.59;;;20.64
45976;BMP280;31696;42.668;23.322;2023-04-24T10:06:20;94233.25;;;20.81
45976;BMP280;31696;42.668;23.322;2023-04-24T10:08:20;94219.28;;;21.16
45976;BMP280;31696;42.668;23.322;2023-04-24T10:10:21;94219.75;;;21.11
45976;BMP280;31696;42.668;23.322;2023-04-24T10:12:22;94215.81;;;20.72
45976;BMP280;31696;42.668;23.322;2023-04-24T10:14:23;94217.50;;;20.83
45976;BMP280;31696;42.668;23.322;2023-04-24T10:16:24;94203.66;;;21.22
45976;BMP280;31696;42.668;23.322;2023-04-24T10:18:27;94197.16;;;21.05
45976;BMP280;31696;42.668;23.322;2023-04-24T10:20:28;94191.19;;;20.85
45976;BMP280;31696;42.668;23.322;2023-04-24T10:22:29;94186.13;;;20.54
45976;BMP280;31696;42.668;23.322;2023-04-24T10:24:30;94191.56;;;20.58
45976;BMP280;31696;42.668;23.322;2023-04-24T10:26:31;94187.75;;;20.26
45976;BMP280;31696;42.668;23.322;2023-04-24T10:28:32;94188.44;;;20.64
45976;BMP280;31696;42.668;23.322;2023-04-24T10:30:34;94184.06;;;20.51
45976;BMP280;31696;42.668;23.322;2023-04-24T10:32:35;94182.75;;;20.52
45976;BMP280;31696;42.668;23.322;2023-04-24T10:34:35;94174.94;;;20.73
45976;BMP280;31696;42.668;23.322;2023-04-24T10:36:38;94166.72;;;21.02
45976;BMP280;31696;42.668;23.322;2023-04-24T10:38:39;94165.25;;;21.19
45976;BMP280;31696;42.668;23.322;2023-04-24T10:40:41;94172.09;;;21.26
45976;BMP280;31696;42.668;23.322;2023-04-24T10:42:42;94166.75;;;21.44
45976;BMP280;31696;42.668;23.322;2023-04-24T10:44:42;94160.09;;;21.43
45976;BMP280;31696;42.668;23.322;2023-04-24T10:46:43;94166.72;;;21.65
45976;BMP280;31696;42.668;23.322;2023-04-24T10:48:44;94153.75;;;21.95
45976;BMP280;31696;42.668;23.322;2023-04-24T10:50:52;94158.66;;;21.40
45976;BMP280;31696;42.668;23.322;2023-04-24T10:52:52;94160.09;;;21.43
45976;BMP280;31696;42.668;23.322;2023-04-24T10:54:54;94160.44;;;21.14
45976;BMP280;31696;42.668;23.322;2023-04-24T10:57:40;94158.03;;;21.20
45976;BMP280;31696;42.668;23.322;2023-04-24T10:59:25;94151.88;;;20.93
45976;BMP280;31696;42.668;23.322;2023-04-24T11:01:26;94142.47;;;20.69
45976;BMP280;31696;42.668;23.322;2023-04-24T11:03:31;94151.75;;;20.89
45976;BMP280;31696;42.668;23.322;2023-04-24T11:10:11;94137.00;;;20.82
45976;BMP280;31696;42.668;23.322;2023-04-24T11:12:25;94140.31;;;20.83
45976;BMP280;31696;42.668;23.322;2023-04-24T11:14:26;94144.56;;;20.72
45976;BMP280;31696;42.668;23.322;2023-04-24T11:16:28;94140.94;;;20.62
45976;BMP280;31696;42.668;23.322;2023-04-24T11:18:38;94147.84;;;20.53
45976;BMP280;31696;42.668;23.322;2023-04-24T11:20:43;94158.97;;;20.32
45976;BMP280;31696;42.668;23.322;2023-04-24T11:22:44;94176.91;;;20.35
45976;BMP280;31696;42.668;23.322;2023-04-24T11:26:54;94183.16;;;20.09
45976;BMP280;31696;42.668;23.322;2023-04-24T11:28:55;94185.56;;;19.85
45976;BMP280;31696;42.668;23.322;2023-04-24T11:33:25;94201.94;;;19.33
45976;BMP280;31696;42.668;23.322;2023-04-24T11:35:26;94203.06;;;19.45
45976;BMP280;31696;42.668;23.322;2023-04-24T11:37:29;94201.75;;;19.62
45976;BMP280;31696;42.668;23.322;2023-04-24T11:39:36;94195.84;;;19.61
45976;BMP280;31696;42.668;23.322;2023-04-24T11:41:36;94201.22;;;19.48
45976;BMP280;31696;42.668;23.322;2023-04-24T11:43:37;94194.25;;;19.54
45976;BMP280;31696;42.668;23.322;2023-04-24T11:45:37;94180.66;;;19.44
45976;BMP280;31696;42.668;23.322;2023-04-24T11:47:38;94179.47;;;19.47